sensor_id;sensor_type;location;lat;lon;timestamp;P1;durP1;ratioP1;P2;durP2;ratioP2
23608;SDS011;11982;50.810;4.442;2022-10-13T00:01:07;22.65;;;12.60;;
23608;SDS011;11982;50.810;4.442;2022-10-13T00:03:34;29.85;;;11.55;;
23608;SDS011;11982;50.810;4.442;2022-10-13T00:06:03;27.50;;;10.88;;
23608;SDS011;11982;50.810;4.442;2022-10-13T00:08:34;23.55;;;12.75;;
23608;SDS011;11982;50.810;4.442;2022-10-13T00:11:00;23.33;;;12.73;;
23608;SDS011;11982;50.810;4.442;2022-10-13T00:13:26;26.42;;;12.25;;
23608;SDS011;11982;50.810;4.442;2022-10-13T00:15:52;20.05;;;11.55;;
23608;SDS011;11982;50.810;4.442;2022-10-13T00:18:18;19.13;;;11.27;;
23608;SDS011;11982;50.810;4.442;2022-10-13T00:20:44;28.30;;;11.35;;
23608;SDS011;11982;50.810;4.442;2022-10-13T00:23:12;24.45;;;12.48;;
23608;SDS011;11982;50.810;4.442;2022-10-13T00:25:41;26.15;;;12.45;;
23608;SDS011;11982;50.810;4.442;2022-10-13T00:28:08;25.58;;;12.93;;
23608;SDS011;11982;50.810;4.442;2022-10-13T00:30:34;23.27;;;11.35;;
23608;SDS011;11982;50.810;4.442;2022-10-13T00:33:01;29.10;;;12.52;;
23608;SDS011;11982;50.810;4.442;2022-10-13T00:35:27;28.92;;;12.35;;
23608;SDS011;11982;50.810;4.442;2022-10-13T00:37:52;26.33;;;12.18;;
23608;SDS011;11982;50.810;4.442;2022-10-13T00:40:18;42.88;;;13.45;;
23608;SDS011;11982;50.810;4.442;2022-10-13T00:42:44;28.90;;;12.55;;
23608;SDS011;11982;50.810;4.442;2022-10-13T00:47:47;27.95;;;12.50;;
23608;SDS011;11982;50.810;4.442;2022-10-13T00:50:17;21.27;;;11.35;;
23608;SDS011;11982;50.810;4.442;2022-10-13T00:52:46;23.73;;;11.93;;
23608;SDS011;11982;50.810;4.442;2022-10-13T00:55:13;28.35;;;12.05;;
23608;SDS011;11982;50.810;4.442;2022-10-13T00:57:44;24.50;;;12.95;;
23608;SDS011;11982;50.810;4.442;2022-10-13T01:00:12;23.70;;;12.40;;
23608;SDS011;11982;50.810;4.442;2022-10-13T01:02:38;26.13;;;12.60;;
23608;SDS011;11982;50.810;4.442;2022-10-13T01:05:04;25.85;;;12.88;;
23608;SDS011;11982;50.810;4.442;2022-10-13T01:07:31;24.27;;;11.88;;
23608;SDS011;11982;50.810;4.442;2022-10-13T01:09:59;26.65;;;12.32;;
23608;SDS011;11982;50.810;4.442;2022-10-13T01:12:41;21.33;;;12.65;;
23608;SDS011;11982;50.810;4.442;2022-10-13T01:15:16;25.02;;;11.70;;
23608;SDS011;11982;50.810;4.442;2022-10-13T01:32:11;29.83;;;13.43;;
23608;SDS011;11982;50.810;4.442;2022-10-13T01:34:51;24.08;;;12.13;;
23608;SDS011;11982;50.810;4.442;2022-10-13T01:37:28;24.60;;;12.40;;
23608;SDS011;11982;50.810;4.442;2022-10-13T01:42:47;26.50;;;12.20;;
23608;SDS011;11982;50.810;4.442;2022-10-13T01:45:14;26.10;;;13.52;;
23608;SDS011;11982;50.810;4.442;2022-10-13T01:47:44;27.15;;;12.88;;
23608;SDS011;11982;50.810;4.442;2022-10-13T01:50:10;19.23;;;12.57;;
23608;SDS011;11982;50.810;4.442;2022-10-13T01:52:39;26.38;;;13.07;;
23608;SDS011;11982;50.810;4.442;2022-10-13T01:55:08;26.85;;;12.68;;
23608;SDS011;11982;50.810;4.442;2022-10-13T02:00:06;27.50;;;13.80;;
23608;SDS011;11982;50.810;4.442;2022-10-13T02:08:36;26.60;;;12.88;;
23608;SDS011;11982;50.810;4.442;2022-10-13T02:11:16;27.23;;;13.18;;
23608;SDS011;11982;50.810;4.442;2022-10-13T02:16:25;24.88;;;13.77;;
23608;SDS011;11982;50.810;4.442;2022-10-13T02:18:54;24.35;;;12.50;;
23608;SDS011;11982;50.810;4.442;2022-10-13T02:21:21;22.23;;;13.23;;
23608;SDS011;11982;50.810;4.442;2022-10-13T02:23:47;29.42;;;13.93;;
23608;SDS011;11982;50.810;4.442;2022-10-13T02:26:13;30.58;;;13.45;;
23608;SDS011;11982;50.810;4.442;2022-10-13T02:28:38;31.42;;;14.02;;
23608;SDS011;11982;50.810;4.442;2022-10-13T02:31:06;28.23;;;13.25;;
23608;SDS011;11982;50.810;4.442;2022-10-13T02:33:32;28.40;;;14.20;;
23608;SDS011;11982;50.810;4.442;2022-10-13T02:35:58;28.67;;;14.70;;
23608;SDS011;11982;50.810;4.442;2022-10-13T02:38:23;24.02;;;13.52;;
23608;SDS011;11982;50.810;4.442;2022-10-13T02:40:49;36.00;;;14.13;;
23608;SDS011;11982;50.810;4.442;2022-10-13T02:43:15;34.58;;;14.15;;
23608;SDS011;11982;50.810;4.442;2022-10-13T02:45:41;30.52;;;14.68;;
23608;SDS011;11982;50.810;4.442;2022-10-13T02:48:07;31.90;;;14.40;;
23608;SDS011;11982;50.810;4.442;2022-10-13T02:50:33;31.48;;;14.75;;
23608;SDS011;11982;50.810;4.442;2022-10-13T02:52:59;33.53;;;15.23;;
23608;SDS011;11982;50.810;4.442;2022-10-13T02:55:24;36.63;;;15.98;;
23608;SDS011;11982;50.810;4.442;2022-10-13T02:57:50;33.88;;;15.35;;
23608;SDS011;11982;50.810;4.442;2022-10-13T03:00:16;30.60;;;15.85;;
23608;SDS011;11982;50.810;4.442;2022-10-13T03:02:42;38.83;;;16.50;;
23608;SDS011;11982;50.810;4.442;2022-10-13T03:05:07;31.42;;;15.25;;
23608;SDS011;11982;50.810;4.442;2022-10-13T03:07:33;30.63;;;15.27;;
23608;SDS011;11982;50.810;4.442;2022-10-13T03:09:59;34.55;;;14.75;;
23608;SDS011;11982;50.810;4.442;2022-10-13T03:12:25;33.35;;;15.82;;
23608;SDS011;11982;50.810;4.442;2022-10-13T03:14:51;37.35;;;16.15;;
23608;SDS011;11982;50.810;4.442;2022-10-13T03:17:17;35.65;;;16.30;;
23608;SDS011;11982;50.810;4.442;2022-10-13T03:19:42;29.27;;;15.80;;
23608;SDS011;11982;50.810;4.442;2022-10-13T03:22:08;29.15;;;15.68;;
23608;SDS011;11982;50.810;4.442;2022-10-13T03:24:34;31.13;;;15.40;;
23608;SDS011;11982;50.810;4.442;2022-10-13T03:26:59;31.45;;;16.30;;
23608;SDS011;11982;50.810;4.442;2022-10-13T03:29:25;35.28;;;15.88;;
23608;SDS011;11982;50.810;4.442;2022-10-13T03:31:51;30.00;;;15.80;;
23608;SDS011;11982;50.810;4.442;2022-10-13T03:34:16;38.33;;;15.88;;
23608;SDS011;11982;50.810;4.442;2022-10-13T03:36:44;34.17;;;16.13;;
23608;SDS011;11982;50.810;4.442;2022-10-13T03:39:09;30.50;;;15.77;;
23608;SDS011;11982;50.810;4.442;2022-10-13T03:41:35;31.42;;;16.63;;
23608;SDS011;11982;50.810;4.442;2022-10-13T03:44:00;36.80;;;16.90;;
23608;SDS011;11982;50.810;4.442;2022-10-13T03:46:27;30.42;;;15.75;;
23608;SDS011;11982;50.810;4.442;2022-10-13T03:48:53;32.90;;;16.83;;
23608;SDS011;11982;50.810;4.442;2022-10-13T03:51:20;34.90;;;16.17;;
23608;SDS011;11982;50.810;4.442;2022-10-13T03:53:46;39.90;;;16.55;;
23608;SDS011;11982;50.810;4.442;2022-10-13T03:56:13;33.95;;;15.50;;
23608;SDS011;11982;50.810;4.442;2022-10-13T03:58:41;32.05;;;15.82;;
23608;SDS011;11982;50.810;4.442;2022-10-13T04:01:07;36.00;;;16.23;;
23608;SDS011;11982;50.810;4.442;2022-10-13T04:03:33;32.40;;;16.92;;
23608;SDS011;11982;50.810;4.442;2022-10-13T04:05:59;28.02;;;15.20;;
23608;SDS011;11982;50.810;4.442;2022-10-13T04:08:27;31.30;;;16.50;;
23608;SDS011;11982;50.810;4.442;2022-10-13T04:11:03;30.35;;;16.60;;
23608;SDS011;11982;50.810;4.442;2022-10-13T04:13:31;31.42;;;15.85;;
23608;SDS011;11982;50.810;4.442;2022-10-13T04:16:01;32.25;;;17.77;;
23608;SDS011;11982;50.810;4.442;2022-10-13T04:18:28;33.80;;;17.02;;
23608;SDS011;11982;50.810;4.442;2022-10-13T04:20:53;33.83;;;17.42;;
23608;SDS011;11982;50.810;4.442;2022-10-13T04:23:19;36.40;;;16.73;;
23608;SDS011;11982;50.810;4.442;2022-10-13T04:25:45;33.05;;;16.13;;
23608;SDS011;11982;50.810;4.442;2022-10-13T04:28:10;39.03;;;16.15;;
23608;SDS011;11982;50.810;4.442;2022-10-13T04:30:36;30.92;;;14.80;;
23608;SDS011;11982;50.810;4.442;2022-10-13T04:33:02;35.40;;;15.27;;
23608;SDS011;11982;50.810;4.442;2022-10-13T04:35:28;33.55;;;15.07;;
23608;SDS011;11982;50.810;4.442;2022-10-13T04:37:54;28.90;;;14.68;;
23608;SDS011;11982;50.810;4.442;2022-10-13T04:40:22;29.55;;;15.32;;
23608;SDS011;11982;50.810;4.442;2022-10-13T04:42:48;30.38;;;13.73;;
23608;SDS011;11982;50.810;4.442;2022-10-13T04:45:14;26.05;;;13.98;;
23608;SDS011;11982;50.810;4.442;2022-10-13T04:47:39;29.77;;;15.27;;
23608;SDS011;11982;50.810;4.442;2022-10-13T04:50:05;27.23;;;13.55;;
23608;SDS011;11982;50.810;4.442;2022-10-13T04:52:32;27.88;;;15.38;;
23608;SDS011;11982;50.810;4.442;2022-10-13T04:55:01;26.55;;;13.82;;
23608;SDS011;11982;50.810;4.442;2022-10-13T04:57:27;29.30;;;15.15;;
23608;SDS011;11982;50.810;4.442;2022-10-13T04:59:52;26.05;;;14.23;;
23608;SDS011;11982;50.810;4.442;2022-10-13T05:02:18;29.23;;;14.48;;
23608;SDS011;11982;50.810;4.442;2022-10-13T05:04:44;29.83;;;15.07;;
23608;SDS011;11982;50.810;4.442;2022-10-13T05:07:09;32.92;;;15.27;;
23608;SDS011;11982;50.810;4.442;2022-10-13T05:09:35;28.40;;;15.13;;
23608;SDS011;11982;50.810;4.442;2022-10-13T05:12:00;34.15;;;15.88;;
23608;SDS011;11982;50.810;4.442;2022-10-13T05:14:26;34.30;;;15.98;;
23608;SDS011;11982;50.810;4.442;2022-10-13T05:16:52;29.85;;;14.77;;
23608;SDS011;11982;50.810;4.442;2022-10-13T05:19:17;31.27;;;14.13;;
23608;SDS011;11982;50.810;4.442;2022-10-13T05:21:43;29.15;;;14.68;;
23608;SDS011;11982;50.810;4.442;2022-10-13T05:24:08;28.52;;;14.32;;
23608;SDS011;11982;50.810;4.442;2022-10-13T05:26:37;31.55;;;14.18;;
23608;SDS011;11982;50.810;4.442;2022-10-13T05:29:04;23.20;;;14.68;;
23608;SDS011;11982;50.810;4.442;2022-10-13T05:31:30;30.63;;;14.55;;
23608;SDS011;11982;50.810;4.442;2022-10-13T05:33:58;25.17;;;14.23;;
23608;SDS011;11982;50.810;4.442;2022-10-13T05:36:28;36.17;;;14.38;;
23608;SDS011;11982;50.810;4.442;2022-10-13T05:38:57;36.13;;;15.18;;
23608;SDS011;11982;50.810;4.442;2022-10-13T05:41:25;36.33;;;15.68;;
23608;SDS011;11982;50.810;4.442;2022-10-13T05:43:52;27.75;;;15.00;;
23608;SDS011;11982;50.810;4.442;2022-10-13T05:46:22;31.08;;;14.48;;
23608;SDS011;11982;50.810;4.442;2022-10-13T05:48:48;32.10;;;14.50;;
23608;SDS011;11982;50.810;4.442;2022-10-13T05:51:24;37.88;;;15.27;;
23608;SDS011;11982;50.810;4.442;2022-10-13T05:54:03;26.52;;;14.20;;
23608;SDS011;11982;50.810;4.442;2022-10-13T05:56:45;31.67;;;14.70;;
23608;SDS011;11982;50.810;4.442;2022-10-13T05:59:24;28.15;;;14.90;;
23608;SDS011;11982;50.810;4.442;2022-10-13T06:01:51;31.67;;;15.05;;
23608;SDS011;11982;50.810;4.442;2022-10-13T06:04:19;35.63;;;15.77;;
23608;SDS011;11982;50.810;4.442;2022-10-13T06:06:48;34.28;;;13.45;;
23608;SDS011;11982;50.810;4.442;2022-10-13T06:09:14;25.15;;;15.07;;
23608;SDS011;11982;50.810;4.442;2022-10-13T06:11:40;28.25;;;13.82;;
23608;SDS011;11982;50.810;4.442;2022-10-13T06:14:06;28.05;;;14.35;;
23608;SDS011;11982;50.810;4.442;2022-10-13T06:16:33;28.25;;;15.48;;
23608;SDS011;11982;50.810;4.442;2022-10-13T06:19:00;26.98;;;13.57;;
23608;SDS011;11982;50.810;4.442;2022-10-13T06:21:26;33.90;;;14.35;;
23608;SDS011;11982;50.810;4.442;2022-10-13T06:23:52;30.33;;;13.90;;
23608;SDS011;11982;50.810;4.442;2022-10-13T06:26:18;30.02;;;15.02;;
23608;SDS011;11982;50.810;4.442;2022-10-13T06:28:43;29.50;;;14.43;;
23608;SDS011;11982;50.810;4.442;2022-10-13T06:31:09;35.97;;;14.93;;
23608;SDS011;11982;50.810;4.442;2022-10-13T06:33:35;42.45;;;16.55;;
23608;SDS011;11982;50.810;4.442;2022-10-13T06:36:01;24.20;;;13.85;;
23608;SDS011;11982;50.810;4.442;2022-10-13T06:38:28;28.80;;;14.57;;
23608;SDS011;11982;50.810;4.442;2022-10-13T06:40:54;33.05;;;14.23;;
23608;SDS011;11982;50.810;4.442;2022-10-13T06:43:27;30.85;;;13.38;;
23608;SDS011;11982;50.810;4.442;2022-10-13T06:45:52;26.80;;;14.68;;
23608;SDS011;11982;50.810;4.442;2022-10-13T06:48:22;24.38;;;13.50;;
23608;SDS011;11982;50.810;4.442;2022-10-13T06:50:47;29.27;;;13.85;;
23608;SDS011;11982;50.810;4.442;2022-10-13T06:53:13;27.05;;;13.63;;
23608;SDS011;11982;50.810;4.442;2022-10-13T06:55:38;28.65;;;15.82;;
23608;SDS011;11982;50.810;4.442;2022-10-13T06:58:06;30.67;;;18.55;;
23608;SDS011;11982;50.810;4.442;2022-10-13T07:00:31;32.83;;;19.58;;
23608;SDS011;11982;50.810;4.442;2022-10-13T07:02:57;21.77;;;13.25;;
23608;SDS011;11982;50.810;4.442;2022-10-13T07:05:23;27.33;;;14.27;;
23608;SDS011;11982;50.810;4.442;2022-10-13T07:07:50;23.52;;;12.85;;
23608;SDS011;11982;50.810;4.442;2022-10-13T07:10:17;24.73;;;12.93;;
23608;SDS011;11982;50.810;4.442;2022-10-13T07:12:42;28.75;;;13.95;;
23608;SDS011;11982;50.810;4.442;2022-10-13T07:15:08;25.58;;;13.80;;
23608;SDS011;11982;50.810;4.442;2022-10-13T07:17:34;24.83;;;12.82;;
23608;SDS011;11982;50.810;4.442;2022-10-13T07:19:59;25.67;;;13.60;;
23608;SDS011;11982;50.810;4.442;2022-10-13T07:22:27;26.05;;;13.00;;
23608;SDS011;11982;50.810;4.442;2022-10-13T07:24:53;24.13;;;12.82;;
23608;SDS011;11982;50.810;4.442;2022-10-13T07:27:18;23.52;;;13.45;;
23608;SDS011;11982;50.810;4.442;2022-10-13T07:29:44;27.73;;;13.57;;
23608;SDS011;11982;50.810;4.442;2022-10-13T07:32:10;22.17;;;13.13;;
23608;SDS011;11982;50.810;4.442;2022-10-13T07:34:35;25.30;;;13.15;;
23608;SDS011;11982;50.810;4.442;2022-10-13T07:37:01;38.90;;;13.52;;
23608;SDS011;11982;50.810;4.442;2022-10-13T07:39:26;30.08;;;12.75;;
23608;SDS011;11982;50.810;4.442;2022-10-13T07:41:52;26.27;;;13.52;;
23608;SDS011;11982;50.810;4.442;2022-10-13T07:44:17;31.98;;;14.65;;
23608;SDS011;11982;50.810;4.442;2022-10-13T07:46:43;32.63;;;13.98;;
23608;SDS011;11982;50.810;4.442;2022-10-13T07:49:08;25.83;;;13.88;;
23608;SDS011;11982;50.810;4.442;2022-10-13T07:51:34;25.50;;;13.95;;
23608;SDS011;11982;50.810;4.442;2022-10-13T07:54:00;31.98;;;13.30;;
23608;SDS011;11982;50.810;4.442;2022-10-13T07:56:25;28.05;;;13.90;;
23608;SDS011;11982;50.810;4.442;2022-10-13T07:58:51;26.08;;;13.05;;
23608;SDS011;11982;50.810;4.442;2022-10-13T08:01:17;29.67;;;12.60;;
23608;SDS011;11982;50.810;4.442;2022-10-13T08:03:43;27.17;;;13.00;;
23608;SDS011;11982;50.810;4.442;2022-10-13T08:06:08;25.30;;;13.70;;
23608;SDS011;11982;50.810;4.442;2022-10-13T08:08:35;28.77;;;13.13;;
23608;SDS011;11982;50.810;4.442;2022-10-13T08:11:01;31.33;;;13.88;;
23608;SDS011;11982;50.810;4.442;2022-10-13T08:13:28;20.52;;;12.40;;
23608;SDS011;11982;50.810;4.442;2022-10-13T08:15:54;25.63;;;13.13;;
23608;SDS011;11982;50.810;4.442;2022-10-13T08:18:19;28.90;;;12.95;;
23608;SDS011;11982;50.810;4.442;2022-10-13T08:20:45;23.48;;;13.45;;
23608;SDS011;11982;50.810;4.442;2022-10-13T08:23:12;27.77;;;12.57;;
23608;SDS011;11982;50.810;4.442;2022-10-13T08:25:38;25.88;;;13.20;;
23608;SDS011;11982;50.810;4.442;2022-10-13T08:28:05;28.30;;;13.68;;
23608;SDS011;11982;50.810;4.442;2022-10-13T08:30:36;25.15;;;12.85;;
23608;SDS011;11982;50.810;4.442;2022-10-13T08:33:02;36.17;;;12.80;;
23608;SDS011;11982;50.810;4.442;2022-10-13T08:35:27;25.15;;;11.75;;
23608;SDS011;11982;50.810;4.442;2022-10-13T08:37:53;33.60;;;12.73;;
23608;SDS011;11982;50.810;4.442;2022-10-13T08:40:19;23.50;;;11.95;;
23608;SDS011;11982;50.810;4.442;2022-10-13T08:42:47;27.27;;;12.35;;
23608;SDS011;11982;50.810;4.442;2022-10-13T08:45:15;21.48;;;11.60;;
23608;SDS011;11982;50.810;4.442;2022-10-13T08:47:48;29.75;;;11.85;;
23608;SDS011;11982;50.810;4.442;2022-10-13T08:50:24;24.40;;;12.15;;
23608;SDS011;11982;50.810;4.442;2022-10-13T08:55:46;32.40;;;11.73;;
23608;SDS011;11982;50.810;4.442;2022-10-13T08:58:20;25.60;;;11.60;;
23608;SDS011;11982;50.810;4.442;2022-10-13T09:00:46;72.78;;;14.57;;
23608;SDS011;11982;50.810;4.442;2022-10-13T09:05:57;43.20;;;12.07;;
23608;SDS011;11982;50.810;4.442;2022-10-13T09:08:43;23.92;;;11.73;;
23608;SDS011;11982;50.810;4.442;2022-10-13T09:11:15;126.20;;;19.40;;
23608;SDS011;11982;50.810;4.442;2022-10-13T09:13:40;31.98;;;11.85;;
23608;SDS011;11982;50.810;4.442;2022-10-13T09:16:06;32.28;;;11.23;;
23608;SDS011;11982;50.810;4.442;2022-10-13T09:18:32;34.55;;;11.35;;
23608;SDS011;11982;50.810;4.442;2022-10-13T09:24:04;21.65;;;9.80;;
23608;SDS011;11982;50.810;4.442;2022-10-13T09:26:32;22.95;;;11.85;;
23608;SDS011;11982;50.810;4.442;2022-10-13T09:29:06;23.55;;;10.63;;
23608;SDS011;11982;50.810;4.442;2022-10-13T09:31:52;26.38;;;10.02;;
23608;SDS011;11982;50.810;4.442;2022-10-13T09:34:31;23.85;;;10.63;;
23608;SDS011;11982;50.810;4.442;2022-10-13T09:36:59;25.08;;;10.75;;
23608;SDS011;11982;50.810;4.442;2022-10-13T09:39:29;21.58;;;11.38;;
23608;SDS011;11982;50.810;4.442;2022-10-13T09:42:17;33.17;;;11.93;;
23608;SDS011;11982;50.810;4.442;2022-10-13T09:45:11;21.00;;;11.10;;
23608;SDS011;11982;50.810;4.442;2022-10-13T09:47:39;95.20;;;14.07;;
23608;SDS011;11982;50.810;4.442;2022-10-13T09:50:15;27.75;;;11.18;;
23608;SDS011;11982;50.810;4.442;2022-10-13T09:52:51;20.90;;;9.13;;
23608;SDS011;11982;50.810;4.442;2022-10-13T09:55:31;19.70;;;10.98;;
23608;SDS011;11982;50.810;4.442;2022-10-13T09:58:09;22.55;;;10.10;;
23608;SDS011;11982;50.810;4.442;2022-10-13T10:00:58;23.63;;;10.55;;
23608;SDS011;11982;50.810;4.442;2022-10-13T10:03:34;30.23;;;11.50;;
23608;SDS011;11982;50.810;4.442;2022-10-13T10:06:03;24.92;;;11.68;;
23608;SDS011;11982;50.810;4.442;2022-10-13T10:11:11;18.73;;;9.85;;
23608;SDS011;11982;50.810;4.442;2022-10-13T10:13:57;23.75;;;10.27;;
23608;SDS011;11982;50.810;4.442;2022-10-13T10:16:38;24.75;;;10.57;;
23608;SDS011;11982;50.810;4.442;2022-10-13T10:19:15;20.42;;;10.23;;
23608;SDS011;11982;50.810;4.442;2022-10-13T10:22:08;18.58;;;10.43;;
23608;SDS011;11982;50.810;4.442;2022-10-13T10:24:45;18.40;;;10.40;;
23608;SDS011;11982;50.810;4.442;2022-10-13T10:27:39;22.75;;;11.38;;
23608;SDS011;11982;50.810;4.442;2022-10-13T10:30:18;21.60;;;11.43;;
23608;SDS011;11982;50.810;4.442;2022-10-13T10:32:57;25.40;;;13.95;;
23608;SDS011;11982;50.810;4.442;2022-10-13T10:35:43;32.78;;;14.95;;
23608;SDS011;11982;50.810;4.442;2022-10-13T10:38:16;29.15;;;14.48;;
23608;SDS011;11982;50.810;4.442;2022-10-13T10:46:27;45.58;;;16.92;;
23608;SDS011;11982;50.810;4.442;2022-10-13T10:48:56;36.63;;;18.45;;
23608;SDS011;11982;50.810;4.442;2022-10-13T10:51:25;49.35;;;18.55;;
23608;SDS011;11982;50.810;4.442;2022-10-13T10:56:41;36.58;;;18.58;;
23608;SDS011;11982;50.810;4.442;2022-10-13T11:06:57;43.03;;;20.02;;
23608;SDS011;11982;50.810;4.442;2022-10-13T11:17:38;43.47;;;20.92;;
23608;SDS011;11982;50.810;4.442;2022-10-13T11:25:38;38.72;;;21.08;;
23608;SDS011;11982;50.810;4.442;2022-10-13T11:39:07;38.00;;;21.83;;
23608;SDS011;11982;50.810;4.442;2022-10-13T11:41:39;41.05;;;22.13;;
23608;SDS011;11982;50.810;4.442;2022-10-13T11:44:20;42.85;;;21.20;;
23608;SDS011;11982;50.810;4.442;2022-10-13T11:47:07;34.90;;;19.90;;
23608;SDS011;11982;50.810;4.442;2022-10-13T11:55:46;36.10;;;18.48;;
23608;SDS011;11982;50.810;4.442;2022-10-13T11:58:25;32.55;;;17.38;;
23608;SDS011;11982;50.810;4.442;2022-10-13T12:01:05;28.65;;;17.13;;
23608;SDS011;11982;50.810;4.442;2022-10-13T12:03:37;31.95;;;18.45;;
23608;SDS011;11982;50.810;4.442;2022-10-13T12:09:06;30.88;;;17.02;;
23608;SDS011;11982;50.810;4.442;2022-10-13T12:11:43;40.28;;;17.35;;
23608;SDS011;11982;50.810;4.442;2022-10-13T12:14:24;26.63;;;16.25;;
23608;SDS011;11982;50.810;4.442;2022-10-13T12:16:57;32.28;;;17.60;;
23608;SDS011;11982;50.810;4.442;2022-10-13T12:19:25;26.67;;;15.75;;
23608;SDS011;11982;50.810;4.442;2022-10-13T12:21:53;28.20;;;17.60;;
23608;SDS011;11982;50.810;4.442;2022-10-13T12:24:21;30.42;;;17.60;;
23608;SDS011;11982;50.810;4.442;2022-10-13T12:26:48;29.25;;;16.45;;
23608;SDS011;11982;50.810;4.442;2022-10-13T12:29:14;23.77;;;16.23;;
23608;SDS011;11982;50.810;4.442;2022-10-13T12:31:42;34.05;;;16.92;;
23608;SDS011;11982;50.810;4.442;2022-10-13T12:34:15;27.73;;;16.70;;
23608;SDS011;11982;50.810;4.442;2022-10-13T12:36:53;33.53;;;17.45;;
23608;SDS011;11982;50.810;4.442;2022-10-13T12:39:42;36.17;;;16.77;;
23608;SDS011;11982;50.810;4.442;2022-10-13T12:42:09;37.30;;;17.45;;
23608;SDS011;11982;50.810;4.442;2022-10-13T12:44:38;33.15;;;16.92;;
23608;SDS011;11982;50.810;4.442;2022-10-13T12:47:04;32.92;;;18.95;;
23608;SDS011;11982;50.810;4.442;2022-10-13T12:49:50;34.60;;;16.88;;
23608;SDS011;11982;50.810;4.442;2022-10-13T12:52:17;30.90;;;18.00;;
23608;SDS011;11982;50.810;4.442;2022-10-13T12:54:49;40.22;;;18.27;;
23608;SDS011;11982;50.810;4.442;2022-10-13T12:57:31;28.25;;;16.25;;
23608;SDS011;11982;50.810;4.442;2022-10-13T13:00:17;30.83;;;17.17;;
23608;SDS011;11982;50.810;4.442;2022-10-13T13:02:53;32.78;;;17.55;;
23608;SDS011;11982;50.810;4.442;2022-10-13T13:05:42;36.15;;;18.00;;
23608;SDS011;11982;50.810;4.442;2022-10-13T13:08:22;31.90;;;18.27;;
23608;SDS011;11982;50.810;4.442;2022-10-13T13:10:52;35.45;;;18.95;;
23608;SDS011;11982;50.810;4.442;2022-10-13T13:13:19;36.92;;;18.77;;
23608;SDS011;11982;50.810;4.442;2022-10-13T13:15:47;38.03;;;20.48;;
23608;SDS011;11982;50.810;4.442;2022-10-13T13:20:50;35.25;;;20.55;;
23608;SDS011;11982;50.810;4.442;2022-10-13T13:23:16;33.00;;;20.40;;
23608;SDS011;11982;50.810;4.442;2022-10-13T13:25:43;36.35;;;20.63;;
23608;SDS011;11982;50.810;4.442;2022-10-13T13:28:10;37.42;;;22.15;;
23608;SDS011;11982;50.810;4.442;2022-10-13T13:30:37;35.13;;;22.42;;
23608;SDS011;11982;50.810;4.442;2022-10-13T13:33:03;40.28;;;23.75;;
23608;SDS011;11982;50.810;4.442;2022-10-13T13:35:29;39.22;;;23.27;;
23608;SDS011;11982;50.810;4.442;2022-10-13T13:37:55;39.55;;;24.70;;
23608;SDS011;11982;50.810;4.442;2022-10-13T13:40:22;40.97;;;24.25;;
23608;SDS011;11982;50.810;4.442;2022-10-13T13:42:49;39.40;;;24.48;;
23608;SDS011;11982;50.810;4.442;2022-10-13T13:45:15;35.97;;;23.55;;
23608;SDS011;11982;50.810;4.442;2022-10-13T13:47:44;41.30;;;25.27;;
23608;SDS011;11982;50.810;4.442;2022-10-13T13:50:14;41.65;;;25.23;;
23608;SDS011;11982;50.810;4.442;2022-10-13T13:52:50;45.92;;;25.73;;
23608;SDS011;11982;50.810;4.442;2022-10-13T13:55:16;42.30;;;27.13;;
23608;SDS011;11982;50.810;4.442;2022-10-13T13:57:42;44.75;;;27.15;;
23608;SDS011;11982;50.810;4.442;2022-10-13T14:00:09;47.22;;;28.02;;
23608;SDS011;11982;50.810;4.442;2022-10-13T14:02:36;43.83;;;26.98;;
23608;SDS011;11982;50.810;4.442;2022-10-13T14:05:02;44.20;;;27.58;;
23608;SDS011;11982;50.810;4.442;2022-10-13T14:07:29;47.38;;;28.10;;
23608;SDS011;11982;50.810;4.442;2022-10-13T14:09:54;42.30;;;27.08;;
23608;SDS011;11982;50.810;4.442;2022-10-13T14:12:20;49.65;;;28.65;;
23608;SDS011;11982;50.810;4.442;2022-10-13T14:14:46;45.53;;;26.88;;
23608;SDS011;11982;50.810;4.442;2022-10-13T14:17:11;43.20;;;26.58;;
23608;SDS011;11982;50.810;4.442;2022-10-13T14:19:37;41.75;;;26.17;;
23608;SDS011;11982;50.810;4.442;2022-10-13T14:22:02;40.67;;;25.52;;
23608;SDS011;11982;50.810;4.442;2022-10-13T14:24:28;43.30;;;27.70;;
23608;SDS011;11982;50.810;4.442;2022-10-13T14:26:54;43.85;;;26.23;;
23608;SDS011;11982;50.810;4.442;2022-10-13T14:29:20;43.38;;;26.50;;
23608;SDS011;11982;50.810;4.442;2022-10-13T14:31:46;43.00;;;25.02;;
23608;SDS011;11982;50.810;4.442;2022-10-13T14:34:11;37.40;;;23.23;;
23608;SDS011;11982;50.810;4.442;2022-10-13T14:36:37;35.70;;;21.45;;
23608;SDS011;11982;50.810;4.442;2022-10-13T14:39:02;39.25;;;21.85;;
23608;SDS011;11982;50.810;4.442;2022-10-13T14:41:28;38.33;;;21.45;;
23608;SDS011;11982;50.810;4.442;2022-10-13T14:43:54;39.65;;;22.63;;
23608;SDS011;11982;50.810;4.442;2022-10-13T14:46:21;34.13;;;21.58;;
23608;SDS011;11982;50.810;4.442;2022-10-13T14:48:47;34.33;;;20.85;;
23608;SDS011;11982;50.810;4.442;2022-10-13T14:51:13;31.63;;;20.90;;
23608;SDS011;11982;50.810;4.442;2022-10-13T14:53:39;40.13;;;20.85;;
23608;SDS011;11982;50.810;4.442;2022-10-13T14:56:14;31.00;;;19.20;;
23608;SDS011;11982;50.810;4.442;2022-10-13T14:58:43;28.63;;;18.33;;
23608;SDS011;11982;50.810;4.442;2022-10-13T15:01:08;26.52;;;17.83;;
23608;SDS011;11982;50.810;4.442;2022-10-13T15:03:34;33.38;;;17.13;;
23608;SDS011;11982;50.810;4.442;2022-10-13T15:05:59;29.10;;;17.23;;
23608;SDS011;11982;50.810;4.442;2022-10-13T15:08:25;33.42;;;16.60;;
23608;SDS011;11982;50.810;4.442;2022-10-13T15:11:01;24.58;;;14.88;;
23608;SDS011;11982;50.810;4.442;2022-10-13T15:13:27;22.75;;;13.40;;
23608;SDS011;11982;50.810;4.442;2022-10-13T15:15:53;25.25;;;12.85;;
23608;SDS011;11982;50.810;4.442;2022-10-13T15:18:20;23.17;;;12.07;;
23608;SDS011;11982;50.810;4.442;2022-10-13T15:20:46;24.30;;;12.82;;
23608;SDS011;11982;50.810;4.442;2022-10-13T15:23:12;22.00;;;12.57;;
23608;SDS011;11982;50.810;4.442;2022-10-13T15:25:39;19.73;;;12.15;;
23608;SDS011;11982;50.810;4.442;2022-10-13T15:28:10;16.65;;;11.18;;
23608;SDS011;11982;50.810;4.442;2022-10-13T15:30:36;19.05;;;10.85;;
23608;SDS011;11982;50.810;4.442;2022-10-13T15:33:01;19.48;;;11.30;;
23608;SDS011;11982;50.810;4.442;2022-10-13T15:35:30;19.13;;;11.70;;
23608;SDS011;11982;50.810;4.442;2022-10-13T15:37:56;14.63;;;10.00;;
23608;SDS011;11982;50.810;4.442;2022-10-13T15:40:22;17.23;;;10.55;;
23608;SDS011;11982;50.810;4.442;2022-10-13T15:42:48;14.10;;;9.68;;
23608;SDS011;11982;50.810;4.442;2022-10-13T15:45:14;17.63;;;10.60;;
23608;SDS011;11982;50.810;4.442;2022-10-13T15:47:40;18.92;;;11.98;;
23608;SDS011;11982;50.810;4.442;2022-10-13T15:50:05;17.80;;;10.30;;
23608;SDS011;11982;50.810;4.442;2022-10-13T15:52:35;21.05;;;11.80;;
23608;SDS011;11982;50.810;4.442;2022-10-13T15:55:05;18.65;;;11.15;;
23608;SDS011;11982;50.810;4.442;2022-10-13T15:57:31;18.55;;;11.25;;
23608;SDS011;11982;50.810;4.442;2022-10-13T15:59:57;20.25;;;11.15;;
23608;SDS011;11982;50.810;4.442;2022-10-13T16:02:23;26.00;;;11.93;;
23608;SDS011;11982;50.810;4.442;2022-10-13T16:04:49;16.92;;;10.63;;